Petaluma — WCX2520 — position and weather

sailwx.info

Track history (hours):
 
Tides and Currents Weather Stations Pressure Air Temp Water Temp Dewpoint Dewpoint Depression Visibility Wind Speed Wind Dir Waves Ship Positions

Petaluma

Owner: JERICO PRODUCTS INC, PETALUMA, CA. More information available from US FCC via Universal Licensing System and Coast Guard Vessel Documentation Center.

Last reported at 2018-Feb-19 14:12 UTC. Time now 2018-Feb-20 23:32 UTC.
Position N 38°06' W 122°16'.

Length 20 m; draft 1.8 m.

Type: Towing. MMSI: 367006030.

Date/timePositionNaut miles runAvg speedWind from/ knotsBaromVisibWave heightAir tempDewpointWater temp
2018-Feb-19 14:12N 38°06' W 122°16'0 0.0
2018-Feb-19 13:59N 38°06' W 122°16'0 0.0
2018-Feb-19 13:29N 38°06' W 122°16'0 0.0
2018-Feb-19 12:14N 38°06' W 122°16'0 0.0
2018-Feb-19 11:54N 38°06' W 122°16'0 0.0
2018-Feb-19 11:23N 38°06' W 122°16'0 0.0
2018-Feb-19 10:53N 38°06' W 122°16'0 0.1
2018-Feb-19 10:30N 38°06' W 122°16'0 0.0
2018-Feb-19 09:56N 38°06' W 122°16'0 0.0
2018-Feb-19 09:28N 38°06' W 122°16'0 0.0
2018-Feb-19 07:52N 38°06' W 122°16'0 0.0
2018-Feb-19 07:27N 38°06' W 122°16'0 0.0
2018-Feb-19 05:07N 38°06' W 122°16'0 0.0
2018-Feb-19 04:12N 38°06' W 122°16'0 0.0
2018-Feb-19 03:59N 38°06' W 122°16'0 0.0
2018-Feb-19 03:26N 38°06' W 122°16'0 0.6
2018-Feb-19 02:41N 38°05' W 122°15'1 2.9
2018-Feb-19 02:30N 38°05' W 122°15'6 0.4
2018-Feb-18 13:11N 38°02' W 122°09'1 6.9
2018-Feb-18 12:59N 38°03' W 122°10'4 7.5
2018-Feb-18 12:30N 38°04' W 122°14'4 7.8
2018-Feb-18 12:00N 38°03' W 122°19'4 7.2
2018-Feb-18 11:30N 38°03' W 122°24'3 5.8
2018-Feb-18 10:57N 38°05' W 122°26'3 6.1
2018-Feb-18 10:30N 38°07' W 122°29'2 4.2
2018-Feb-18 10:00N 38°08' W 122°31'2 3.0
2018-Feb-18 09:30N 38°09' W 122°32'2 3.1
2018-Feb-18 09:00N 38°11' W 122°33'2 4.2
2018-Feb-18 08:30N 38°12' W 122°34'2 3.9
2018-Feb-18 08:00N 38°13' W 122°36'0 0.1
2018-Feb-18 07:31N 38°13' W 122°36'0 0.0
2018-Feb-18 07:00N 38°13' W 122°36'0 0.0
2018-Feb-18 06:30N 38°13' W 122°36'0 0.0
2018-Feb-18 06:00N 38°13' W 122°36'0 0.0
2018-Feb-18 05:31N 38°13' W 122°36'0 0.0
2018-Feb-18 05:00N 38°13' W 122°36'0 0.0
2018-Feb-18 04:30N 38°13' W 122°36'0 0.0
2018-Feb-18 04:00N 38°13' W 122°36'0 0.0
2018-Feb-18 03:30N 38°13' W 122°36'0 0.0
2018-Feb-18 02:57N 38°13' W 122°36'0 0.0
2018-Feb-18 02:31N 38°13' W 122°36'0 0.0
2018-Feb-18 02:01N 38°13' W 122°36'0 0.0
2018-Feb-18 01:30N 38°13' W 122°36'0 0.0
2018-Feb-18 01:01N 38°13' W 122°36'0 0.0
2018-Feb-18 00:30N 38°13' W 122°36'0 0.0
2018-Feb-18 00:00N 38°13' W 122°36'0 0.0
2018-Feb-17 23:30N 38°13' W 122°36'0 0.0
2018-Feb-17 23:01N 38°13' W 122°36'0 0.0
2018-Feb-17 22:31N 38°13' W 122°36'0 0.0
2018-Feb-17 22:01N 38°13' W 122°36'0 0.0
2018-Feb-17 21:30N 38°13' W 122°36'0 0.0
2018-Feb-17 21:01N 38°13' W 122°36'1 2.0
2018-Feb-17 20:31N 38°13' W 122°35'1 1.6
2018-Feb-17 20:00N 38°12' W 122°35'1 2.7
2018-Feb-17 19:31N 38°12' W 122°33'2 4.2
2018-Feb-17 19:01N 38°10' W 122°32'2 3.7
2018-Feb-17 18:30N 38°08' W 122°31'2 3.9
2018-Feb-17 17:57N 38°07' W 122°29'2 4.8
2018-Feb-17 17:31N 38°06' W 122°27'2 4.3
2018-Feb-17 17:01N 38°04' W 122°26'2 3.6
2018-Feb-17 16:30N 38°02' W 122°25'3 5.6
2018-Feb-17 15:59N 38°03' W 122°21'3 5.7
2018-Feb-17 15:30N 38°04' W 122°18'4 7.9
2018-Feb-17 15:00N 38°04' W 122°13'3 6.7
2018-Feb-17 14:30N 38°02' W 122°09'12 5.0
2018-Feb-17 12:12N 38°03' W 121°54'0 0.0
2018-Feb-17 12:01N 38°03' W 121°54'0 0.0
2018-Feb-17 11:30N 38°03' W 121°54'0 0.0
2018-Feb-17 11:01N 38°03' W 121°54'0 0.0
2018-Feb-17 10:27N 38°03' W 121°54'0 0.0
2018-Feb-17 10:01N 38°03' W 121°54'0 0.1
2018-Feb-17 09:22N 38°03' W 121°54'0 0.3
2018-Feb-17 08:58N 38°03' W 121°54'11 2.0
2018-Feb-17 03:20N 38°02' W 122°08'1 4.5
2018-Feb-17 03:00N 38°02' W 122°10'2 4.8
2018-Feb-17 02:30N 38°04' W 122°13'2 4.1
2018-Feb-17 02:01N 38°04' W 122°15'2 3.9
2018-Feb-17 01:30N 38°04' W 122°18'2 5.0
2018-Feb-17 01:01N 38°03' W 122°21'3 6.0
2018-Feb-17 00:30N 38°04' W 122°25'4 7.1
2018-Feb-16 23:56N 38°07' W 122°28'3 6.4
2018-Feb-16 23:30N 38°08' W 122°31'3 6.4
2018-Feb-16 23:00N 38°11' W 122°33'2 4.5
2018-Feb-16 22:31N 38°13' W 122°35'1 2.9
2018-Feb-16 22:00N 38°14' W 122°36'0 0.0
2018-Feb-16 21:30N 38°14' W 122°36'0 0.0
2018-Feb-16 21:01N 38°14' W 122°36'0 0.0
2018-Feb-15 20:42N 38°13' W 122°36'0 0.5
2018-Feb-15 20:30N 38°13' W 122°36'2 3.2
2018-Feb-15 20:00N 38°12' W 122°35'2 3.7
2018-Feb-15 19:30N 38°11' W 122°33'2 3.9
2018-Feb-15 18:58N 38°09' W 122°33'3 5.2
2018-Feb-15 18:29N 38°07' W 122°31'2 3.8
2018-Feb-15 17:59N 38°07' W 122°28'2 4.8
2018-Feb-15 17:30N 38°05' W 122°26'3 4.4
2018-Feb-15 16:53N 38°02' W 122°25'2 4.4
2018-Feb-15 16:30N 38°02' W 122°23'3 5.7
2018-Feb-15 16:00N 38°03' W 122°20'3 6.0
2018-Feb-15 15:30N 38°04' W 122°16'4 7.2
2018-Feb-15 14:58N 38°03' W 122°11'13 2.4
2018-Feb-15 09:15N 38°03' W 121°54'0 0.0
2018-Feb-15 08:47N 38°03' W 121°54'11 1.6
2018-Feb-15 01:52N 38°02' W 122°08'2 5.0
2018-Feb-15 01:28N 38°03' W 122°11'2 4.6
2018-Feb-15 01:00N 38°04' W 122°13'3 0.3
2018-Feb-14 14:55N 38°06' W 122°16'1 1.4
2018-Feb-14 14:30N 38°05' W 122°15'3 4.9
2018-Feb-14 13:59N 38°04' W 122°13'14 1.9
2018-Feb-14 06:23N 38°03' W 121°54'0 0.0
2018-Feb-14 05:59N 38°03' W 121°54'11 2.6
2018-Feb-14 01:47N 38°02' W 122°08'2 4.6
2018-Feb-14 01:26N 38°03' W 122°10'2 4.7
2018-Feb-14 00:58N 38°03' W 122°13'2 3.8
2018-Feb-14 00:29N 38°04' W 122°15'2 3.6
2018-Feb-14 00:00N 38°03' W 122°17'2 4.4
2018-Feb-13 23:30N 38°03' W 122°20'3 5.4
2018-Feb-13 22:55N 38°04' W 122°24'3 6.7
2018-Feb-13 22:28N 38°06' W 122°27'3 6.9
2018-Feb-13 22:00N 38°07' W 122°31'3 6.6
2018-Feb-13 21:30N 38°10' W 122°32'3 5.0
2018-Feb-13 21:00N 38°12' W 122°34'2 4.7
2018-Feb-13 20:30N 38°14' W 122°36'0 0.1
2018-Feb-13 20:00N 38°14' W 122°36'0 0.0
2018-Feb-13 19:30N 38°14' W 122°36'0 0.0
2018-Feb-13 19:00N 38°14' W 122°36'0 0.0
2018-Feb-13 18:30N 38°14' W 122°36'0 0.0
2018-Feb-13 18:00N 38°14' W 122°36'0 0.0
2018-Feb-13 17:30N 38°14' W 122°36'0 0.0
2018-Feb-13 17:00N 38°14' W 122°36'0 0.0
2018-Feb-13 14:45N 38°14' W 122°36'0 0.0
2018-Feb-13 14:31N 38°14' W 122°36'0 0.0
2018-Feb-13 04:36N 38°14' W 122°36'0 0.0
2018-Feb-13 04:30N 38°14' W 122°36'0 0.0
2018-Feb-13 02:16N 38°13' W 122°36'0 0.0
2018-Feb-13 02:00N 38°13' W 122°36'0 0.0
2018-Feb-13 01:30N 38°13' W 122°36'0 0.0
2018-Feb-13 00:56N 38°13' W 122°36'0 0.0
2018-Feb-13 00:29N 38°13' W 122°36'0 0.0
2018-Feb-13 00:00N 38°13' W 122°36'0 0.0
2018-Feb-12 23:29N 38°13' W 122°36'0 0.0
2018-Feb-12 23:00N 38°13' W 122°36'0 0.0
2018-Feb-12 22:27N 38°13' W 122°36'0 0.0
2018-Feb-12 22:00N 38°13' W 122°36'0 0.0
2018-Feb-12 21:30N 38°13' W 122°36'0 0.0
2018-Feb-12 21:00N 38°13' W 122°36'0 0.0
2018-Feb-12 20:30N 38°13' W 122°36'0 0.0
2018-Feb-12 20:00N 38°13' W 122°36'0 0.0
2018-Feb-12 19:30N 38°13' W 122°36'0 0.0
2018-Feb-12 18:59N 38°13' W 122°36'0 0.0
2018-Feb-12 18:30N 38°13' W 122°36'0 0.0
2018-Feb-12 18:00N 38°13' W 122°36'1 2.4
2018-Feb-12 17:30N 38°13' W 122°35'2 3.4
2018-Feb-12 17:00N 38°12' W 122°33'2 4.0
2018-Feb-12 16:30N 38°10' W 122°32'2 3.4
2018-Feb-12 15:59N 38°09' W 122°31'2 4.1
2018-Feb-12 15:29N 38°07' W 122°30'2 4.2
2018-Feb-12 14:59N 38°06' W 122°27'2 4.5
2018-Feb-12 14:30N 38°05' W 122°26'2 4.5
2018-Feb-12 14:00N 38°02' W 122°25'0 0.0
2018-Feb-12 13:30N 38°02' W 122°25'1 1.7
2018-Feb-12 13:00N 38°02' W 122°24'3 5.6
2018-Feb-12 12:30N 38°03' W 122°21'3 5.6
2018-Feb-12 12:00N 38°04' W 122°18'3 6.8
2018-Feb-12 11:30N 38°04' W 122°13'15 2.0
2018-Feb-12 03:59N 38°03' W 121°54'0 0.0
2018-Feb-12 03:30N 38°03' W 121°54'0 0.0
2018-Feb-12 02:57N 38°03' W 121°54'0 0.0
2018-Feb-12 02:07N 38°03' W 121°54'13 4.7
2018-Feb-11 23:28N 38°03' W 122°10'3 5.4
2018-Feb-11 23:00N 38°04' W 122°13'3 5.4
2018-Feb-11 22:27N 38°03' W 122°17'3 5.8
2018-Feb-11 21:57N 38°03' W 122°21'3 6.3
2018-Feb-11 21:29N 38°04' W 122°24'4 7.4
2018-Feb-11 21:00N 38°06' W 122°27'3 6.9
2018-Feb-11 20:30N 38°08' W 122°31'3 6.4
2018-Feb-11 20:00N 38°11' W 122°33'2 4.8
2018-Feb-11 19:30N 38°13' W 122°35'  
Track history (hours):
 
Tides and Currents Weather Stations Pressure Air Temp Water Temp Dewpoint Dewpoint Depression Visibility Wind Speed Wind Dir Waves Ship Positions

Petaluma

Owner: JERICO PRODUCTS INC, PETALUMA, CA. More information available from US FCC via Universal Licensing System and Coast Guard Vessel Documentation Center.

Last reported at 2018-Feb-19 14:12 UTC. Time now 2018-Feb-20 23:32 UTC.
Position N 38°06' W 122°16'.

Length 20 m; draft 1.8 m.

Type: Towing. MMSI: 367006030.

Date/timePositionNaut miles runAvg speedWind from/ knotsBaromVisibWave heightAir tempDewpointWater temp
2018-Feb-19 14:12N 38°06' W 122°16'0 0.0
2018-Feb-19 13:59N 38°06' W 122°16'0 0.0
2018-Feb-19 13:29N 38°06' W 122°16'0 0.0
2018-Feb-19 12:14N 38°06' W 122°16'0 0.0
2018-Feb-19 11:54N 38°06' W 122°16'0 0.0
2018-Feb-19 11:23N 38°06' W 122°16'0 0.0
2018-Feb-19 10:53N 38°06' W 122°16'0 0.1
2018-Feb-19 10:30N 38°06' W 122°16'0 0.0
2018-Feb-19 09:56N 38°06' W 122°16'0 0.0
2018-Feb-19 09:28N 38°06' W 122°16'0 0.0
2018-Feb-19 07:52N 38°06' W 122°16'0 0.0
2018-Feb-19 07:27N 38°06' W 122°16'0 0.0
2018-Feb-19 05:07N 38°06' W 122°16'0 0.0
2018-Feb-19 04:12N 38°06' W 122°16'0 0.0
2018-Feb-19 03:59N 38°06' W 122°16'0 0.0
2018-Feb-19 03:26N 38°06' W 122°16'0 0.6
2018-Feb-19 02:41N 38°05' W 122°15'1 2.9
2018-Feb-19 02:30N 38°05' W 122°15'6 0.4
2018-Feb-18 13:11N 38°02' W 122°09'1 6.9
2018-Feb-18 12:59N 38°03' W 122°10'4 7.5
2018-Feb-18 12:30N 38°04' W 122°14'4 7.8
2018-Feb-18 12:00N 38°03' W 122°19'4 7.2
2018-Feb-18 11:30N 38°03' W 122°24'3 5.8
2018-Feb-18 10:57N 38°05' W 122°26'3 6.1
2018-Feb-18 10:30N 38°07' W 122°29'2 4.2
2018-Feb-18 10:00N 38°08' W 122°31'2 3.0
2018-Feb-18 09:30N 38°09' W 122°32'2 3.1
2018-Feb-18 09:00N 38°11' W 122°33'2 4.2
2018-Feb-18 08:30N 38°12' W 122°34'2 3.9
2018-Feb-18 08:00N 38°13' W 122°36'0 0.1
2018-Feb-18 07:31N 38°13' W 122°36'0 0.0
2018-Feb-18 07:00N 38°13' W 122°36'0 0.0
2018-Feb-18 06:30N 38°13' W 122°36'0 0.0
2018-Feb-18 06:00N 38°13' W 122°36'0 0.0
2018-Feb-18 05:31N 38°13' W 122°36'0 0.0
2018-Feb-18 05:00N 38°13' W 122°36'0 0.0
2018-Feb-18 04:30N 38°13' W 122°36'0 0.0
2018-Feb-18 04:00N 38°13' W 122°36'0 0.0
2018-Feb-18 03:30N 38°13' W 122°36'0 0.0
2018-Feb-18 02:57N 38°13' W 122°36'0 0.0
2018-Feb-18 02:31N 38°13' W 122°36'0 0.0
2018-Feb-18 02:01N 38°13' W 122°36'0 0.0
2018-Feb-18 01:30N 38°13' W 122°36'0 0.0
2018-Feb-18 01:01N 38°13' W 122°36'0 0.0
2018-Feb-18 00:30N 38°13' W 122°36'0 0.0
2018-Feb-18 00:00N 38°13' W 122°36'0 0.0
2018-Feb-17 23:30N 38°13' W 122°36'0 0.0
2018-Feb-17 23:01N 38°13' W 122°36'0 0.0
2018-Feb-17 22:31N 38°13' W 122°36'0 0.0
2018-Feb-17 22:01N 38°13' W 122°36'0 0.0
2018-Feb-17 21:30N 38°13' W 122°36'0 0.0
2018-Feb-17 21:01N 38°13' W 122°36'1 2.0
2018-Feb-17 20:31N 38°13' W 122°35'1 1.6
2018-Feb-17 20:00N 38°12' W 122°35'1 2.7
2018-Feb-17 19:31N 38°12' W 122°33'2 4.2
2018-Feb-17 19:01N 38°10' W 122°32'2 3.7
2018-Feb-17 18:30N 38°08' W 122°31'2 3.9
2018-Feb-17 17:57N 38°07' W 122°29'2 4.8
2018-Feb-17 17:31N 38°06' W 122°27'2 4.3
2018-Feb-17 17:01N 38°04' W 122°26'2 3.6
2018-Feb-17 16:30N 38°02' W 122°25'3 5.6
2018-Feb-17 15:59N 38°03' W 122°21'3 5.7
2018-Feb-17 15:30N 38°04' W 122°18'4 7.9
2018-Feb-17 15:00N 38°04' W 122°13'3 6.7
2018-Feb-17 14:30N 38°02' W 122°09'12 5.0
2018-Feb-17 12:12N 38°03' W 121°54'0 0.0
2018-Feb-17 12:01N 38°03' W 121°54'0 0.0
2018-Feb-17 11:30N 38°03' W 121°54'0 0.0
2018-Feb-17 11:01N 38°03' W 121°54'0 0.0
2018-Feb-17 10:27N 38°03' W 121°54'0 0.0
2018-Feb-17 10:01N 38°03' W 121°54'0 0.1
2018-Feb-17 09:22N 38°03' W 121°54'0 0.3
2018-Feb-17 08:58N 38°03' W 121°54'11 2.0
2018-Feb-17 03:20N 38°02' W 122°08'1 4.5
2018-Feb-17 03:00N 38°02' W 122°10'2 4.8
2018-Feb-17 02:30N 38°04' W 122°13'2 4.1
2018-Feb-17 02:01N 38°04' W 122°15'2 3.9
2018-Feb-17 01:30N 38°04' W 122°18'2 5.0
2018-Feb-17 01:01N 38°03' W 122°21'3 6.0
2018-Feb-17 00:30N 38°04' W 122°25'4 7.1
2018-Feb-16 23:56N 38°07' W 122°28'3 6.4
2018-Feb-16 23:30N 38°08' W 122°31'3 6.4
2018-Feb-16 23:00N 38°11' W 122°33'2 4.5
2018-Feb-16 22:31N 38°13' W 122°35'1 2.9
2018-Feb-16 22:00N 38°14' W 122°36'0 0.0
2018-Feb-16 21:30N 38°14' W 122°36'0 0.0
2018-Feb-16 21:01N 38°14' W 122°36'0 0.0
2018-Feb-15 20:42N 38°13' W 122°36'0 0.5
2018-Feb-15 20:30N 38°13' W 122°36'2 3.2
2018-Feb-15 20:00N 38°12' W 122°35'2 3.7
2018-Feb-15 19:30N 38°11' W 122°33'2 3.9
2018-Feb-15 18:58N 38°09' W 122°33'3 5.2
2018-Feb-15 18:29N 38°07' W 122°31'2 3.8
2018-Feb-15 17:59N 38°07' W 122°28'2 4.8
2018-Feb-15 17:30N 38°05' W 122°26'3 4.4
2018-Feb-15 16:53N 38°02' W 122°25'2 4.4
2018-Feb-15 16:30N 38°02' W 122°23'3 5.7
2018-Feb-15 16:00N 38°03' W 122°20'3 6.0
2018-Feb-15 15:30N 38°04' W 122°16'4 7.2
2018-Feb-15 14:58N 38°03' W 122°11'13 2.4
2018-Feb-15 09:15N 38°03' W 121°54'0 0.0
2018-Feb-15 08:47N 38°03' W 121°54'11 1.6
2018-Feb-15 01:52N 38°02' W 122°08'2 5.0
2018-Feb-15 01:28N 38°03' W 122°11'2 4.6
2018-Feb-15 01:00N 38°04' W 122°13'3 0.3
2018-Feb-14 14:55N 38°06' W 122°16'1 1.4
2018-Feb-14 14:30N 38°05' W 122°15'3 4.9
2018-Feb-14 13:59N 38°04' W 122°13'14 1.9
2018-Feb-14 06:23N 38°03' W 121°54'0 0.0
2018-Feb-14 05:59N 38°03' W 121°54'11 2.6
2018-Feb-14 01:47N 38°02' W 122°08'2 4.6
2018-Feb-14 01:26N 38°03' W 122°10'2 4.7
2018-Feb-14 00:58N 38°03' W 122°13'2 3.8
2018-Feb-14 00:29N 38°04' W 122°15'2 3.6
2018-Feb-14 00:00N 38°03' W 122°17'2 4.4
2018-Feb-13 23:30N 38°03' W 122°20'3 5.4
2018-Feb-13 22:55N 38°04' W 122°24'3 6.7
2018-Feb-13 22:28N 38°06' W 122°27'3 6.9
2018-Feb-13 22:00N 38°07' W 122°31'3 6.6
2018-Feb-13 21:30N 38°10' W 122°32'3 5.0
2018-Feb-13 21:00N 38°12' W 122°34'2 4.7
2018-Feb-13 20:30N 38°14' W 122°36'0 0.1
2018-Feb-13 20:00N 38°14' W 122°36'0 0.0
2018-Feb-13 19:30N 38°14' W 122°36'0 0.0
2018-Feb-13 19:00N 38°14' W 122°36'0 0.0
2018-Feb-13 18:30N 38°14' W 122°36'0 0.0
2018-Feb-13 18:00N 38°14' W 122°36'0 0.0
2018-Feb-13 17:30N 38°14' W 122°36'0 0.0
2018-Feb-13 17:00N 38°14' W 122°36'0 0.0
2018-Feb-13 14:45N 38°14' W 122°36'0 0.0
2018-Feb-13 14:31N 38°14' W 122°36'0 0.0
2018-Feb-13 04:36N 38°14' W 122°36'0 0.0
2018-Feb-13 04:30N 38°14' W 122°36'0 0.0
2018-Feb-13 02:16N 38°13' W 122°36'0 0.0
2018-Feb-13 02:00N 38°13' W 122°36'0 0.0
2018-Feb-13 01:30N 38°13' W 122°36'0 0.0
2018-Feb-13 00:56N 38°13' W 122°36'0 0.0
2018-Feb-13 00:29N 38°13' W 122°36'0 0.0
2018-Feb-13 00:00N 38°13' W 122°36'0 0.0
2018-Feb-12 23:29N 38°13' W 122°36'0 0.0
2018-Feb-12 23:00N 38°13' W 122°36'0 0.0
2018-Feb-12 22:27N 38°13' W 122°36'0 0.0
2018-Feb-12 22:00N 38°13' W 122°36'0 0.0
2018-Feb-12 21:30N 38°13' W 122°36'0 0.0
2018-Feb-12 21:00N 38°13' W 122°36'0 0.0
2018-Feb-12 20:30N 38°13' W 122°36'0 0.0
2018-Feb-12 20:00N 38°13' W 122°36'0 0.0
2018-Feb-12 19:30N 38°13' W 122°36'0 0.0
2018-Feb-12 18:59N 38°13' W 122°36'0 0.0
2018-Feb-12 18:30N 38°13' W 122°36'0 0.0
2018-Feb-12 18:00N 38°13' W 122°36'1 2.4
2018-Feb-12 17:30N 38°13' W 122°35'2 3.4
2018-Feb-12 17:00N 38°12' W 122°33'2 4.0
2018-Feb-12 16:30N 38°10' W 122°32'2 3.4
2018-Feb-12 15:59N 38°09' W 122°31'2 4.1
2018-Feb-12 15:29N 38°07' W 122°30'2 4.2
2018-Feb-12 14:59N 38°06' W 122°27'2 4.5
2018-Feb-12 14:30N 38°05' W 122°26'2 4.5
2018-Feb-12 14:00N 38°02' W 122°25'0 0.0
2018-Feb-12 13:30N 38°02' W 122°25'1 1.7
2018-Feb-12 13:00N 38°02' W 122°24'3 5.6
2018-Feb-12 12:30N 38°03' W 122°21'3 5.6
2018-Feb-12 12:00N 38°04' W 122°18'3 6.8
2018-Feb-12 11:30N 38°04' W 122°13'15 2.0
2018-Feb-12 03:59N 38°03' W 121°54'0 0.0
2018-Feb-12 03:30N 38°03' W 121°54'0 0.0
2018-Feb-12 02:57N 38°03' W 121°54'0 0.0
2018-Feb-12 02:07N 38°03' W 121°54'13 4.7
2018-Feb-11 23:28N 38°03' W 122°10'3 5.4
2018-Feb-11 23:00N 38°04' W 122°13'3 5.4
2018-Feb-11 22:27N 38°03' W 122°17'3 5.8
2018-Feb-11 21:57N 38°03' W 122°21'3 6.3
2018-Feb-11 21:29N 38°04' W 122°24'4 7.4
2018-Feb-11 21:00N 38°06' W 122°27'3 6.9
2018-Feb-11 20:30N 38°08' W 122°31'3 6.4
2018-Feb-11 20:00N 38°11' W 122°33'2 4.8
2018-Feb-11 19:30N 38°13' W 122°35'  

Dump ship's entire track history